Time;durP1;ratioP1;P1;durP2;ratioP2;P2;SDS_P1;SDS_P2;PMS_P1;PMS_P2;Temp;Humidity;BMP_temperature;BMP_pressure;BME280_temperature;BME280_humidity;BME280_pressure;Samples;Min_cycle;Max_cycle;Signal;HPM_P1;HPM_P2
2021/04/21 00:00:14;;;;;;;;;;;;;;;7.17;80.10;98714.50;3478608;28;20056;-53
2021/04/21 00:01:57;;;;;;;15.13;9.43;;;;;;;7.16;79.87;98717.06;3483140;28;20432;-45
2021/04/21 00:03:40;;;;;;;17.10;10.00;;;;;;;7.15;80.46;98713.63;3478267;28;20056;-45
2021/04/21 00:05:24;;;;;;;15.52;9.80;;;;;;;7.14;80.78;98716.19;3480853;28;20080;-45
2021/04/21 00:07:06;;;;;;;18.20;10.50;;;;;;;7.11;80.87;98717.03;3480930;28;20053;-50
2021/04/21 00:08:48;;;;;;;18.63;10.77;;;;;;;7.11;80.32;98721.31;3478353;28;20055;-50
2021/04/21 00:10:30;;;;;;;14.20;9.68;;;;;;;7.10;80.66;98722.16;3482766;28;20048;-49
2021/04/21 00:12:12;;;;;;;16.98;10.05;;;;;;;7.08;80.21;98727.31;3479299;28;20084;-51
2021/04/21 00:13:53;;;;;;;15.45;9.77;;;;;;;7.07;80.34;98718.72;3480710;28;20057;-50
2021/04/21 00:15:35;;;;;;;20.23;11.32;;;;;;;7.07;80.23;98728.13;3478725;28;20049;-52
2021/04/21 00:17:19;;;;;;;18.17;10.85;;;;;;;7.08;80.30;98730.72;3481508;28;20068;-46
2021/04/21 00:19:03;;;;;;;16.33;10.15;;;;;;;7.08;80.11;98732.47;3481913;28;20048;-51
2021/04/21 00:20:51;;;;;;;15.25;9.45;;;;;;;7.08;80.31;98727.31;3480188;28;20079;-51
2021/04/21 00:22:34;;;;;;;16.73;10.00;;;;;;;7.08;80.55;98732.47;3482686;28;20106;-52
2021/04/21 00:24:16;;;;;;;13.30;7.68;;;;;;;7.08;80.27;98729.88;3479556;28;20072;-46
2021/04/21 00:26:00;;;;;;;14.63;9.43;;;;;;;7.07;79.95;98730.72;3481530;28;20114;-51
2021/04/21 00:27:42;;;;;;;15.00;9.60;;;;;;;7.05;80.76;98733.31;3480946;28;20048;-45
2021/04/21 00:29:25;;;;;;;17.77;9.55;;;;;;;7.04;80.62;98735.84;3478028;28;20422;-50
2021/04/21 00:31:09;;;;;;;14.27;9.55;;;;;;;7.02;80.64;98735.84;3481963;28;20053;-47
2021/04/21 00:32:52;;;;;;;15.07;9.80;;;;;;;7.00;80.68;98734.06;3479942;28;20743;-46
2021/04/21 00:34:37;;;;;;;13.50;8.60;;;;;;;6.98;80.67;98733.19;3483488;28;20045;-50
2021/04/21 00:36:21;;;;;;;17.35;10.20;;;;;;;6.96;80.92;98737.47;3479943;28;20049;-53
2021/04/21 00:38:07;;;;;;;14.93;9.50;;;;;;;6.94;80.82;98733.97;3479511;28;20079;-52
2021/04/21 00:39:48;;;;;;;17.77;9.38;;;;;;;6.91;80.76;98739.94;3481255;28;20520;-45
2021/04/21 00:41:40;;;;;;;14.48;10.05;;;;;;;6.91;81.02;98739.06;3479816;28;20098;-45
2021/04/21 00:43:29;;;;;;;13.88;9.40;;;;;;;6.89;80.81;98742.50;3483127;28;20049;-45
2021/04/21 00:45:14;;;;;;;15.70;10.68;;;;;;;6.86;81.19;98737.31;3478321;28;20056;-47
2021/04/21 00:47:01;;;;;;;17.38;9.20;;;;;;;6.85;81.31;98742.44;3480767;28;20046;-46
2021/04/21 00:48:55;;;;;;;15.18;10.45;;;;;;;6.83;81.23;98738.97;3481536;28;20085;-47
2021/04/21 00:50:43;;;;;;;14.63;9.40;;;;;;;6.81;81.40;98738.97;3479589;28;20081;-50
2021/04/21 00:52:31;;;;;;;12.98;8.73;;;;;;;6.79;81.28;98737.19;3483235;28;20294;-53
2021/04/21 00:54:17;;;;;;;12.48;8.55;;;;;;;6.79;81.72;98742.34;3479891;28;20052;-46
2021/04/21 00:56:05;;;;;;;14.15;9.45;;;;;;;6.78;81.59;98736.34;3477634;28;20041;-46
2021/04/21 00:57:57;;;;;;;14.93;9.77;;;;;;;6.77;81.76;98739.78;3484289;28;20422;-47
2021/04/21 00:59:52;;;;;;;14.88;9.43;;;;;;;6.74;82.06;98741.44;3481379;28;20092;-45
2021/04/21 01:01:36;;;;;;;15.35;9.38;;;;;;;6.73;81.88;98744.84;3482678;28;20496;-52
2021/04/21 01:03:21;;;;;;;14.15;8.90;;;;;;;6.69;81.85;98741.38;3482800;28;20044;-52
2021/04/21 01:05:08;;;;;;;12.35;7.75;;;;;;;6.66;81.81;98739.59;3481734;28;20048;-45
2021/04/21 01:06:53;;;;;;;13.85;8.35;;;;;;;6.64;82.03;98743.88;3471697;28;20111;-52
2021/04/21 01:08:39;;;;;;;15.18;10.00;;;;;;;6.63;82.40;98743.84;3478149;28;20048;-53
2021/04/21 01:10:21;;;;;;;14.82;8.98;;;;;;;6.61;82.33;98740.38;3484619;28;20056;-45
2021/04/21 01:12:07;;;;;;;15.57;9.40;;;;;;;6.59;82.45;98737.78;3482465;28;20056;-45
2021/04/21 01:13:59;;;;;;;15.93;9.82;;;;;;;6.59;82.45;98736.91;3479853;28;20511;-45
2021/04/21 01:15:43;;;;;;;14.68;9.55;;;;;;;6.57;82.55;98747.19;3484485;28;20365;-52
2021/04/21 01:17:26;;;;;;;15.52;9.85;;;;;;;6.57;82.58;98741.19;3479732;28;20541;-51
2021/04/21 01:19:14;;;;;;;15.93;9.52;;;;;;;6.55;82.92;98742.88;3484587;28;20063;-53
2021/04/21 01:21:02;;;;;;;16.35;9.80;;;;;;;6.53;82.96;98742.84;3481099;28;20075;-50
2021/04/21 01:23:22;;;;;;;16.13;10.52;;;;;;;6.53;82.90;98744.56;3481653;28;20052;-52
2021/04/21 01:25:08;;;;;;;17.65;9.98;;;;;;;6.50;82.99;98743.66;3470978;28;20049;-53
2021/04/21 01:26:58;;;;;;;13.02;8.75;;;;;;;6.49;83.00;98739.38;3479827;28;20049;-46
2021/04/21 01:28:44;;;;;;;15.00;8.82;;;;;;;6.49;82.85;98741.94;3480404;28;20041;-46
2021/04/21 01:30:27;;;;;;;15.23;9.30;;;;;;;6.48;83.08;98740.19;3483675;28;20422;-46
2021/04/21 01:32:16;;;;;;;14.50;8.93;;;;;;;6.49;82.65;98747.09;3479365;28;20052;-53
2021/04/21 01:34:00;;;;;;;16.98;10.23;;;;;;;6.48;82.84;98744.50;3471268;28;20050;-50
2021/04/21 01:35:44;;;;;;;16.67;9.15;;;;;;;6.47;82.99;98747.91;3481427;28;20052;-46
2021/04/21 01:37:30;;;;;;;13.40;9.18;;;;;;;6.47;82.63;98745.31;3483543;28;20102;-50
2021/04/21 01:39:13;;;;;;;15.00;9.75;;;;;;;6.44;82.57;98746.16;3482820;28;20572;-46
2021/04/21 01:40:57;;;;;;;15.93;9.88;;;;;;;6.44;83.05;98745.31;3480207;28;20064;-45
2021/04/21 01:42:42;;;;;;;16.92;10.82;;;;;;;6.43;82.99;98744.41;3484567;28;20053;-51
2021/04/21 01:44:29;;;;;;;14.98;10.05;;;;;;;6.41;82.95;98746.09;3480748;28;20106;-53
2021/04/21 01:46:14;;;;;;;17.83;11.65;;;;;;;6.41;82.72;98747.81;3480824;28;20068;-53
2021/04/21 01:47:59;;;;;;;14.98;10.25;;;;;;;6.41;82.89;98752.97;3483038;28;20072;-47
2021/04/21 01:49:54;;;;;;;16.13;10.32;;;;;;;6.40;82.75;98746.97;3480111;28;20054;-46
2021/04/21 01:51:39;;;;;;;;;;;;;;;6.40;82.48;98751.22;3485183;28;20056;-45
2021/04/21 01:53:29;;;;;;;16.05;10.07;;;;;;;6.40;82.43;98754.69;3481248;28;19979;-51
2021/04/21 01:55:49;;;;;;;15.23;9.18;;;;;;;6.38;82.41;98747.78;3482157;28;20144;-50
2021/04/21 01:57:34;;;;;;;14.23;9.50;;;;;;;6.36;83.13;98746.88;3429065;28;20054;-45
2021/04/21 01:59:24;;;;;;;16.58;9.85;;;;;;;6.33;82.89;98752.88;3443575;28;20414;-47
2021/04/21 02:01:12;;;;;;;14.48;9.20;;;;;;;6.32;82.99;98751.13;3482898;28;20049;-45
2021/04/21 02:03:12;;;;;;;13.90;8.75;;;;;;;6.29;83.05;98744.22;3482516;28;20107;-46
2021/04/21 02:05:02;;;;;;;14.57;8.77;;;;;;;6.28;83.04;98754.50;3480797;28;20478;-51
2021/04/21 02:06:51;;;;;;;17.05;9.20;;;;;;;6.26;83.19;98756.19;3483913;28;20098;-46
2021/04/21 02:08:42;;;;;;;14.15;8.80;;;;;;;6.25;83.54;98754.44;3482891;28;20053;-50
2021/04/21 02:10:34;;;;;;;14.13;8.85;;;;;;;6.21;83.44;98747.53;3479626;28;20612;-51
2021/04/21 02:12:33;;;;;;;14.15;9.32;;;;;;;6.19;83.49;98751.75;3470779;28;20064;-46
2021/04/21 02:14:23;;;;;;;12.65;8.35;;;;;;;6.16;83.78;98754.31;3478922;28;20501;-45
2021/04/21 02:16:23;;;;;;;13.45;8.45;;;;;;;6.12;83.79;98748.25;3479697;28;20057;-50
2021/04/21 02:18:13;;;;;;;12.70;8.40;;;;;;;6.10;84.09;98753.34;3470298;28;20195;-50
2021/04/21 02:20:00;;;;;;;14.85;8.90;;;;;;;6.08;84.12;98754.16;3478469;28;20548;-51
2021/04/21 02:21:48;;;;;;;13.07;8.40;;;;;;;6.06;84.20;98750.69;3481150;28;20049;-50
2021/04/21 02:23:37;;;;;;;9.50;6.43;;;;;;;6.04;84.32;98758.38;3482236;28;20102;-50
2021/04/21 02:25:31;;;;;;;13.25;8.80;;;;;;;6.00;84.69;98754.03;3479300;28;20092;-46
2021/04/21 02:27:24;;;;;;;14.02;8.93;;;;;;;5.99;84.51;98754.00;3483594;28;20414;-46
2021/04/21 02:29:16;;;;;;;14.02;9.07;;;;;;;5.94;84.68;98761.63;3480960;28;20095;-47
2021/04/21 02:31:05;;;;;;;14.38;8.98;;;;;;;5.90;84.75;98760.72;3479941;28;20072;-45
2021/04/21 02:33:10;;;;;;;15.80;9.13;;;;;;;5.89;85.38;98760.72;3483194;28;20045;-46
2021/04/21 02:35:00;;;;;;;11.55;7.47;;;;;;;5.84;84.64;98765.78;3480280;28;20544;-45
2021/04/21 02:36:44;;;;;;;14.90;8.77;;;;;;;5.83;85.08;98765.75;3480970;28;20118;-46
2021/04/21 02:38:30;;;;;;;12.05;8.18;;;;;;;5.80;85.27;98766.56;3481693;28;20049;-45
2021/04/21 02:40:21;;;;;;;13.63;9.07;;;;;;;5.78;85.71;98767.38;3478726;28;20593;-45
2021/04/21 02:42:08;;;;;;;13.15;8.13;;;;;;;5.74;85.82;98769.88;3483716;28;20053;-46
2021/04/21 02:44:04;;;;;;;15.48;8.30;;;;;;;5.71;85.70;98768.94;3480264;28;20065;-46
2021/04/21 02:45:56;;;;;;;12.32;7.63;;;;;;;5.67;86.05;98769.75;3479271;28;20049;-45
2021/04/21 02:47:41;;;;;;;12.35;7.05;;;;;;;5.66;85.75;98771.47;3482945;28;20426;-45
2021/04/21 02:49:48;;;;;;;14.32;8.57;;;;;;;5.63;85.68;98776.53;3478974;28;20080;-45
2021/04/21 02:51:41;;;;;;;13.68;7.18;;;;;;;5.62;85.24;98772.22;3475053;28;20076;-46
2021/04/21 02:53:29;;;;;;;12.90;8.05;;;;;;;5.61;85.79;98779.94;3482566;28;20087;-45
2021/04/21 02:55:26;;;;;;;15.13;8.52;;;;;;;5.58;86.99;98782.44;3480201;28;20040;-45
2021/04/21 02:57:14;;;;;;;15.15;8.40;;;;;;;5.54;86.91;98779.81;3482510;28;20052;-44
2021/04/21 02:59:02;;;;;;;14.98;8.38;;;;;;;5.53;86.76;98783.19;3481214;28;20064;-46
2021/04/21 03:00:49;;;;;;;17.95;9.93;;;;;;;5.52;87.14;98783.19;3478836;28;20072;-47
2021/04/21 03:02:34;;;;;;;16.55;9.00;;;;;;;5.52;86.77;98790.91;3483485;28;20111;-46
2021/04/21 03:04:19;;;;;;;17.52;8.60;;;;;;;5.53;86.77;98792.63;3480214;28;20049;-46
2021/04/21 03:06:08;;;;;;;13.07;8.48;;;;;;;5.52;87.25;98791.78;3482532;28;20099;-46
2021/04/21 03:07:56;;;;;;;17.45;9.10;;;;;;;5.53;87.22;98779.75;3480765;28;20091;-46
2021/04/21 03:09:45;;;;;;;15.45;8.82;;;;;;;5.53;87.54;98790.91;3478589;28;20087;-48
2021/04/21 03:11:27;;;;;;;20.15;9.43;;;;;;;5.55;87.49;98796.97;3483486;28;20418;-51
2021/04/21 03:13:13;;;;;;;14.35;9.02;;;;;;;5.55;87.45;98798.66;3478944;28;20052;-46
2021/04/21 03:15:01;;;;;;;15.70;9.20;;;;;;;5.58;87.42;98797.88;3482726;28;20053;-48
2021/04/21 03:16:46;;;;;;;14.85;9.02;;;;;;;5.59;87.59;98797.91;3480705;28;20107;-51
2021/04/21 03:18:30;;;;;;;13.77;9.23;;;;;;;5.61;87.39;98805.66;3479852;28;20052;-50
2021/04/21 03:20:16;;;;;;;13.02;8.48;;;;;;;5.61;87.55;98803.94;3469930;28;20058;-51
2021/04/21 03:22:01;;;;;;;15.65;9.07;;;;;;;5.63;87.50;98803.97;3475574;28;20579;-52
2021/04/21 03:23:44;;;;;;;14.45;9.05;;;;;;;5.64;87.71;98805.69;3483097;28;20080;-52
2021/04/21 03:25:30;;;;;;;14.27;8.88;;;;;;;5.65;87.30;98805.72;3478234;28;20060;-53
2021/04/21 03:27:14;;;;;;;13.80;8.80;;;;;;;5.67;87.43;98808.34;3480654;28;20052;-50
2021/04/21 03:28:59;;;;;;;14.18;9.32;;;;;;;5.68;87.49;98810.94;3481673;28;20056;-51
2021/04/21 03:30:44;;;;;;;17.50;9.80;;;;;;;5.68;87.48;98805.81;3479538;28;20076;-50
2021/04/21 03:32:28;;;;;;;13.98;9.15;;;;;;;5.69;87.36;98809.22;3483285;28;20060;-52
2021/04/21 03:34:15;;;;;;;14.52;8.43;;;;;;;5.71;87.38;98807.53;3478617;28;20053;-53
2021/04/21 03:35:59;;;;;;;13.40;8.57;;;;;;;5.71;87.89;98813.59;3479687;28;20045;-51
2021/04/21 03:37:52;;;;;;;12.68;7.90;;;;;;;5.72;87.62;98809.28;3482086;28;20059;-46
2021/04/21 03:39:33;;;;;;;13.95;9.60;;;;;;;5.72;87.10;98817.88;3479596;28;20087;-46
2021/04/21 03:41:15;;;;;;;11.93;7.40;;;;;;;5.72;87.26;98817.88;3482978;28;20106;-47
2021/04/21 03:42:57;;;;;;;12.15;7.45;;;;;;;5.72;87.00;98817.00;3479439;28;20079;-47
2021/04/21 03:44:39;;;;;;;15.20;9.23;;;;;;;5.74;87.37;98820.47;3482354;28;20106;-46
2021/04/21 03:46:21;;;;;;;11.25;6.97;;;;;;;5.74;87.17;98820.47;3479783;28;20080;-46
2021/04/21 03:48:04;;;;;;;12.73;8.55;;;;;;;5.74;87.39;98821.34;3479161;28;20131;-46
2021/04/21 03:49:46;;;;;;;15.73;10.00;;;;;;;5.74;87.54;98821.34;3481363;28;20057;-47
2021/04/21 03:51:27;;;;;;;13.02;8.20;;;;;;;5.74;87.60;98826.47;3479610;28;20084;-47
2021/04/21 03:53:12;;;;;;;14.88;9.30;;;;;;;5.74;87.44;98828.19;3482812;28;20099;-46
2021/04/21 03:54:55;;;;;;;12.00;7.75;;;;;;;5.76;87.63;98821.38;3480060;28;20040;-46
2021/04/21 03:56:41;;;;;;;15.23;10.13;;;;;;;5.73;87.63;98822.19;3481561;28;20044;-46
2021/04/21 03:58:26;;;;;;;15.07;9.73;;;;;;;5.77;87.67;98827.41;3480632;28;20094;-46
2021/04/21 04:00:09;;;;;;;15.23;9.70;;;;;;;5.78;87.52;98823.97;3479675;28;20057;-46
2021/04/21 04:01:55;;;;;;;19.27;10.20;;;;;;;5.79;87.66;98833.44;3482540;28;20505;-48
2021/04/21 04:03:38;;;;;;;15.05;8.70;;;;;;;5.80;87.76;98840.31;3479376;28;20052;-47
2021/04/21 04:05:25;;;;;;;16.42;10.98;;;;;;;5.81;87.83;98832.63;3482184;28;20428;-46
2021/04/21 04:07:11;;;;;;;17.00;10.75;;;;;;;5.83;87.57;98838.66;3478789;28;20053;-46
2021/04/21 04:08:59;;;;;;;17.08;11.18;;;;;;;5.85;87.38;98836.13;3480519;28;20049;-46
2021/04/21 04:10:47;;;;;;;17.88;10.57;;;;;;;5.89;87.68;98848.22;3468826;28;20085;-47
2021/04/21 04:12:32;;;;;;;19.77;11.20;;;;;;;5.92;87.43;98843.13;3475829;28;20502;-46
2021/04/21 04:14:18;;;;;;;21.27;10.45;;;;;;;5.95;87.29;98840.59;3480848;28;20053;-46
2021/04/21 04:16:01;;;;;;;20.77;11.43;;;;;;;5.97;87.50;98844.06;3479711;28;20114;-46
2021/04/21 04:17:47;;;;;;;17.33;10.30;;;;;;;6.02;87.10;98841.59;3478231;28;20056;-52
2021/04/21 04:19:31;;;;;;;16.48;9.98;;;;;;;6.04;86.93;98840.78;3482327;28;20110;-52
2021/04/21 04:21:14;;;;;;;15.95;10.43;;;;;;;6.07;86.83;98852.84;3476937;28;20084;-53
2021/04/21 04:22:58;;;;;;;18.10;11.23;;;;;;;6.07;86.85;98848.56;3469025;28;20108;-52
2021/04/21 04:24:43;;;;;;;19.27;12.52;;;;;;;6.11;86.80;98855.50;3477394;28;20052;-53
2021/04/21 04:26:26;;;;;;;17.15;11.27;;;;;;;6.13;86.64;98856.41;3480580;28;20041;-53
2021/04/21 04:28:09;;;;;;;26.77;13.07;;;;;;;6.16;86.48;98855.59;3480233;28;20057;-47
2021/04/21 04:29:52;;;;;;;19.58;11.63;;;;;;;6.18;86.66;98860.75;3477812;28;20041;-46
2021/04/21 04:31:35;;;;;;;19.67;11.82;;;;;;;6.19;86.39;98860.78;3467812;28;20453;-46
2021/04/21 04:33:22;;;;;;;19.85;12.65;;;;;;;6.21;86.52;98863.41;3476012;28;20064;-47
2021/04/21 04:35:08;;;;;;;21.80;11.43;;;;;;;6.25;86.41;98862.59;3482185;28;20531;-52
2021/04/21 04:36:50;;;;;;;16.67;11.18;;;;;;;6.28;86.31;98862.66;3478825;28;20048;-52
2021/04/21 04:38:33;;;;;;;16.08;10.65;;;;;;;6.31;86.20;98865.28;3477794;28;20049;-52
2021/04/21 04:40:16;;;;;;;18.23;11.25;;;;;;;6.35;86.08;98868.78;3481799;28;20509;-51
2021/04/21 04:41:58;;;;;;;17.52;10.55;;;;;;;6.39;85.88;98868.88;3478348;28;20040;-52
2021/04/21 04:43:43;;;;;;;20.08;10.52;;;;;;;6.42;85.68;98870.66;3482485;28;20137;-51
2021/04/21 04:45:28;;;;;;;19.85;11.60;;;;;;;6.44;85.90;98864.66;3478075;28;20048;-46
2021/04/21 04:47:11;;;;;;;17.40;11.63;;;;;;;6.48;85.16;98869.00;3480164;28;20052;-46
2021/04/21 04:48:56;;;;;;;18.40;11.30;;;;;;;6.48;85.00;98874.16;3480802;28;20044;-46
2021/04/21 04:50:41;;;;;;;16.13;10.02;;;;;;;6.49;85.21;98862.19;3477506;28;20538;-54
2021/04/21 04:52:25;;;;;;;20.73;10.60;;;;;;;6.48;85.15;98870.72;3482395;28;20106;-51
2021/04/21 04:54:06;;;;;;;18.60;11.52;;;;;;;6.50;85.05;98863.91;3479057;28;20067;-53
2021/04/21 04:55:48;;;;;;;23.38;11.75;;;;;;;6.54;85.52;98865.69;3480887;28;20424;-53
2021/04/21 04:57:32;;;;;;;20.95;12.60;;;;;;;6.60;85.38;98870.09;3477816;28;20057;-53
2021/04/21 04:59:14;;;;;;;17.08;10.40;;;;;;;6.64;85.13;98866.69;3478406;28;20068;-52
2021/04/21 05:01:03;;;;;;;18.50;11.70;;;;;;;6.69;84.93;98859.91;3480923;28;20581;-51
2021/04/21 05:02:52;;;;;;;22.30;12.20;;;;;;;6.76;84.72;98861.75;3478671;28;20138;-51
2021/04/21 05:04:38;;;;;;;19.13;11.95;;;;;;;6.81;84.38;98862.69;3481450;28;20122;-53
2021/04/21 05:06:28;;;;;;;17.90;11.40;;;;;;;6.92;84.29;98860.28;3478314;28;20049;-50
2021/04/21 05:08:13;;;;;;;20.80;13.18;;;;;;;6.98;84.03;98873.31;3477716;28;20081;-53
2021/04/21 05:10:01;;;;;;;26.45;12.93;;;;;;;7.00;83.80;98879.34;3482088;28;20088;-51
2021/04/21 05:11:45;;;;;;;22.58;11.75;;;;;;;7.01;83.92;98878.47;3478825;28;20053;-46
2021/04/21 05:13:29;;;;;;;21.90;11.90;;;;;;;7.03;83.60;98884.53;3480604;28;20053;-46
2021/04/21 05:15:46;;;;;;;19.73;12.77;;;;;;;7.06;83.59;98883.72;3478839;28;20453;-46
2021/04/21 05:18:22;;;;;;;21.80;11.40;;;;;;;7.09;83.59;98883.78;3451986;28;20053;-46
2021/04/21 05:20:37;;;;;;;25.27;13.02;;;;;;;7.12;83.50;98896.69;3478519;28;20045;-53
2021/04/21 05:22:56;;;;;;;22.15;13.52;;;;;;;7.16;83.27;98900.19;3468514;28;20053;-50
2021/04/21 05:25:27;;;;;;;20.00;12.93;;;;;;;7.18;83.11;98893.38;3480653;28;20080;-45
2021/04/21 05:27:52;;;;;;;18.45;12.32;;;;;;;7.19;83.05;98902.81;3478914;28;20426;-46
2021/04/21 05:29:53;;;;;;;19.55;13.68;;;;;;;7.16;82.60;98903.66;3436060;28;20053;-46
2021/04/21 05:32:17;;;;;;;15.80;10.23;;;;;;;7.15;82.87;98901.03;3480863;28;20081;-47
2021/04/21 05:34:48;;;;;;;22.48;12.60;;;;;;;7.07;82.90;98900.91;3468483;28;20140;-51
2021/04/21 05:37:15;;;;;;;18.15;12.07;;;;;;;7.04;82.85;98901.75;3480480;28;20053;-46
2021/04/21 05:39:35;;;;;;;23.55;12.55;;;;;;;7.06;83.15;98902.63;3476998;28;20075;-51
2021/04/21 05:42:08;;;;;;;14.48;9.55;;;;;;;7.11;83.15;98910.44;3478741;28;20056;-50
2021/04/21 05:44:26;;;;;;;18.02;12.25;;;;;;;7.14;82.96;98915.66;3481158;28;20057;-46
2021/04/21 05:46:43;;;;;;;16.88;9.75;;;;;;;7.12;82.94;98911.31;3470553;28;20080;-51
2021/04/21 05:49:04;;;;;;;22.67;13.75;;;;;;;7.09;82.98;98914.72;3483202;28;20075;-51
2021/04/21 05:51:26;;;;;;;20.75;14.10;;;;;;;7.10;83.12;98919.03;3474345;28;20493;-46
2021/04/21 05:53:59;;;;;;;18.92;12.70;;;;;;;7.13;82.76;98913.06;3474667;28;20091;-46
2021/04/21 05:56:14;;;;;;;19.23;12.73;;;;;;;7.15;82.84;98919.09;3453266;28;20045;-46
2021/04/21 05:58:24;;;;;;;26.33;13.65;;;;;;;7.18;82.65;98919.16;3473374;28;20045;-46
2021/04/21 06:00:42;;;;;;;18.73;12.90;;;;;;;7.24;82.39;98929.56;3481380;28;20053;-45
2021/04/21 06:02:27;;;;;;;21.58;13.70;;;;;;;7.31;82.26;98923.63;3480367;28;20052;-45
2021/04/21 06:04:08;;;;;;;22.83;11.10;;;;;;;7.38;82.47;98924.59;3483264;28;20136;-46
2021/04/21 06:05:50;;;;;;;21.65;13.48;;;;;;;7.44;82.45;98917.81;3481502;28;20550;-46
2021/04/21 06:07:31;;;;;;;17.55;11.98;;;;;;;7.49;82.11;98928.19;3481740;28;20052;-46
2021/04/21 06:09:13;;;;;;;19.30;12.93;;;;;;;7.54;81.94;98934.28;3482771;28;20053;-46
2021/04/21 06:10:54;;;;;;;17.50;12.23;;;;;;;7.57;81.48;98936.06;3479782;28;20094;-46
2021/04/21 06:12:36;;;;;;;17.67;11.68;;;;;;;7.57;81.42;98936.91;3483837;28;20060;-47
2021/04/21 06:14:21;;;;;;;23.23;14.18;;;;;;;7.53;81.67;98932.56;3478235;28;20049;-45
2021/04/21 06:16:02;;;;;;;24.48;13.75;;;;;;;7.57;81.86;98934.34;3482905;28;20126;-45
2021/04/21 06:17:45;;;;;;;19.35;12.73;;;;;;;7.61;81.60;98937.81;3481828;28;20048;-46
2021/04/21 06:19:27;;;;;;;21.15;13.40;;;;;;;7.65;81.27;98942.16;3481024;28;20057;-45
2021/04/21 06:21:15;;;;;;;25.65;13.52;;;;;;;7.69;81.57;98940.50;3483383;28;20126;-45
2021/04/21 06:23:08;;;;;;;18.05;12.40;;;;;;;7.74;80.50;98933.69;3478946;28;20056;-46
2021/04/21 06:24:50;;;;;;;15.40;10.27;;;;;;;7.79;80.71;98942.34;3483485;28;20045;-46
2021/04/21 06:26:31;;;;;;;21.60;13.48;;;;;;;7.79;80.15;98945.81;3479660;28;20375;-45
2021/04/21 06:28:18;;;;;;;19.95;11.63;;;;;;;7.81;80.06;98949.28;3481729;28;20056;-44
2021/04/21 06:30:03;;;;;;;21.70;14.27;;;;;;;7.84;80.42;98945.88;3469871;28;20057;-45
2021/04/21 06:31:47;;;;;;;17.83;12.50;;;;;;;7.90;80.26;98947.66;3475491;28;20463;-46
2021/04/21 06:33:32;;;;;;;18.45;10.93;;;;;;;7.93;80.15;98951.13;3484195;28;20049;-52
2021/04/21 06:35:15;;;;;;;15.10;9.13;;;;;;;8.00;80.51;98947.78;3481364;28;20048;-52
2021/04/21 06:36:58;;;;;;;17.13;10.18;;;;;;;8.03;80.04;98947.81;3480300;28;20049;-52
2021/04/21 06:38:40;;;;;;;19.95;12.80;;;;;;;8.03;79.35;98959.88;3482089;28;20506;-51
2021/04/21 06:40:25;;;;;;;17.90;11.88;;;;;;;8.07;79.73;98959.06;3479180;28;20049;-51
2021/04/21 06:42:07;;;;;;;16.38;10.15;;;;;;;8.10;79.49;98947.91;3469855;28;20519;-51
2021/04/21 06:43:48;;;;;;;19.10;13.05;;;;;;;8.11;78.87;98950.53;3476966;28;20131;-52
2021/04/21 06:45:32;;;;;;;17.85;11.90;;;;;;;8.11;78.85;98945.34;3483335;28;20083;-53
2021/04/21 06:47:22;;;;;;;21.10;12.15;;;;;;;8.15;79.09;98948.84;3480567;28;20052;-50
2021/04/21 06:49:04;;;;;;;21.17;13.18;;;;;;;8.19;79.02;98942.84;3479103;28;20429;-50
2021/04/21 06:50:46;;;;;;;20.33;13.43;;;;;;;8.24;77.88;98948.09;3483471;28;20254;-53
2021/04/21 06:52:35;;;;;;;16.50;11.30;;;;;;;8.29;78.03;98949.84;3480179;28;20646;-49
2021/04/21 06:54:20;;;;;;;12.20;7.68;;;;;;;8.38;77.87;98952.53;3482411;28;20405;-50
2021/04/21 06:56:01;;;;;;;14.73;10.55;;;;;;;8.39;75.73;98950.81;3478778;28;20476;-49
2021/04/21 06:57:43;;;;;;;16.55;10.95;;;;;;;8.43;76.27;98950.00;3481432;28;20418;-49
2021/04/21 06:59:24;;;;;;;16.63;11.00;;;;;;;8.52;76.24;98960.44;3480952;28;20045;-50
2021/04/21 07:01:09;;;;;;;17.48;10.18;;;;;;;8.63;76.36;98959.69;3478544;28;20582;-49
2021/04/21 07:02:53;;;;;;;14.40;10.32;;;;;;;8.76;75.98;98959.81;3483221;28;20417;-52
2021/04/21 07:04:35;;;;;;;12.95;10.05;;;;;;;8.90;75.22;98967.69;3479888;28;20430;-51
2021/04/21 07:06:17;;;;;;;12.38;8.32;;;;;;;9.01;74.34;98959.16;3482906;28;21418;-50
2021/04/21 07:08:03;;;;;;;15.40;10.45;;;;;;;9.07;74.29;98967.84;3480609;28;20053;-51
2021/04/21 07:09:47;;;;;;;16.92;9.35;;;;;;;9.18;73.98;98965.34;3480390;28;20099;-51
2021/04/21 07:11:28;;;;;;;11.05;7.55;;;;;;;9.28;73.84;98963.69;3481892;28;20440;-50
2021/04/21 07:13:15;;;;;;;16.70;9.10;;;;;;;9.36;72.89;98969.78;3477525;28;20053;-50
2021/04/21 07:14:57;;;;;;;13.65;8.60;;;;;;;9.42;72.66;98963.78;3469631;28;20057;-54
2021/04/21 07:16:40;;;;;;;18.98;10.35;;;;;;;9.48;72.42;98966.44;3471846;28;20506;-48
2021/04/21 07:18:27;;;;;;;17.15;10.13;;;;;;;9.64;72.44;98972.59;3470575;28;20107;-44
2021/04/21 07:20:11;;;;;;;11.73;8.18;;;;;;;9.77;69.94;98965.75;3471551;28;20049;-45
2021/04/21 07:21:53;;;;;;;11.43;6.97;;;;;;;9.75;69.82;98972.66;3472518;28;20098;-45
2021/04/21 07:23:39;;;;;;;12.40;8.50;;;;;;;9.84;71.39;98968.41;3483078;28;20053;-45
2021/04/21 07:25:21;;;;;;;10.77;8.13;;;;;;;10.02;71.61;98965.03;3478843;28;20040;-47
2021/04/21 07:27:08;;;;;;;10.13;6.93;;;;;;;10.17;69.75;98963.34;3482728;28;20056;-48
2021/04/21 07:28:50;;;;;;;12.80;8.40;;;;;;;10.25;69.18;98965.13;3480122;28;20140;-46
2021/04/21 07:30:32;;;;;;;13.57;8.05;;;;;;;10.26;68.27;98960.78;3481045;28;20056;-48
2021/04/21 07:32:18;;;;;;;13.45;8.35;;;;;;;10.24;68.89;98967.69;3470207;28;20053;-50
2021/04/21 07:34:00;;;;;;;15.15;7.60;;;;;;;10.14;68.89;98979.78;3474522;28;20056;-47
2021/04/21 07:35:42;;;;;;;12.60;8.15;;;;;;;10.09;69.00;98978.88;3482944;28;20076;-46
2021/04/21 07:37:34;;;;;;;11.93;8.32;;;;;;;10.06;68.02;98978.88;3478096;28;20514;-45
2021/04/21 07:39:16;;;;;;;12.63;8.43;;;;;;;10.06;68.31;98982.31;3481306;28;20052;-46
2021/04/21 07:40:57;;;;;;;14.30;8.20;;;;;;;10.08;68.17;98983.19;3480228;28;20056;-52
2021/04/21 07:42:39;;;;;;;13.55;8.20;;;;;;;10.09;68.63;98989.25;3479954;28;20076;-50
2021/04/21 07:44:28;;;;;;;11.90;8.45;;;;;;;10.05;68.14;98987.47;3469231;28;20045;-53
2021/04/21 07:46:16;;;;;;;19.00;8.38;;;;;;;10.09;68.11;98987.53;3470981;28;20469;-52
2021/04/21 07:47:57;;;;;;;11.02;7.88;;;;;;;10.20;67.55;98986.69;3469293;28;20084;-53
2021/04/21 07:49:41;;;;;;;9.45;6.53;;;;;;;10.25;66.20;98985.84;3480687;28;20411;-52
2021/04/21 07:51:37;;;;;;;12.50;7.32;;;;;;;10.34;66.08;98981.56;3478980;28;20053;-51
2021/04/21 07:53:18;;;;;;;8.02;6.22;;;;;;;10.34;65.36;98984.16;3469327;28;20538;-46
2021/04/21 07:55:10;;;;;;;10.77;6.82;;;;;;;10.35;65.26;98985.88;3476147;28;20068;-45
2021/04/21 07:57:11;;;;;;;11.15;6.68;;;;;;;10.38;66.34;98986.75;3482379;28;20083;-46
2021/04/21 07:58:52;;;;;;;10.48;6.80;;;;;;;10.32;65.62;98978.97;3481141;28;20173;-46
2021/04/21 08:00:38;;;;;;;10.30;7.28;;;;;;;10.34;64.83;98979.84;3478588;28;20055;-46
2021/04/21 08:02:30;;;;;;;10.88;7.30;;;;;;;10.35;65.11;98991.06;3482359;28;20076;-45
2021/04/21 08:04:29;;;;;;;9.98;6.65;;;;;;;10.34;65.20;98990.22;3478850;28;20095;-51
2021/04/21 08:06:11;;;;;;;9.90;6.47;;;;;;;10.36;64.21;98991.06;3480362;28;20530;-51
2021/04/21 08:07:56;;;;;;;9.38;6.38;;;;;;;10.45;65.49;98980.72;3481759;28;20056;-45
2021/04/21 08:09:49;;;;;;;10.30;6.50;;;;;;;10.62;64.75;98988.56;3479237;28;20051;-46
2021/04/21 08:11:30;;;;;;;9.18;6.80;;;;;;;10.72;64.13;98989.44;3482610;28;20095;-45
2021/04/21 08:13:14;;;;;;;10.70;6.57;;;;;;;10.79;62.89;98996.38;3476885;28;20067;-46
2021/04/21 08:15:01;;;;;;;9.15;5.78;;;;;;;10.84;62.41;98997.25;3480782;28;20052;-45
2021/04/21 08:16:43;;;;;;;8.52;6.40;;;;;;;10.87;62.12;98988.63;3480962;28;20457;-48
2021/04/21 08:18:31;;;;;;;8.40;5.70;;;;;;;10.85;63.61;98991.19;3478083;28;20494;-53
2021/04/21 08:20:13;;;;;;;11.65;7.15;;;;;;;10.89;63.08;98996.41;3482660;28;20049;-53
2021/04/21 08:21:58;;;;;;;12.07;6.72;;;;;;;10.92;62.99;98998.97;3479040;28;20560;-51
2021/04/21 08:23:40;;;;;;;10.90;6.53;;;;;;;10.87;63.03;98994.66;3480251;28;20126;-53
2021/04/21 08:25:23;;;;;;;9.23;6.75;;;;;;;10.63;62.77;99002.38;3480104;28;20048;-53
2021/04/21 08:27:06;;;;;;;8.77;6.68;;;;;;;10.48;64.06;98995.44;3478759;28;20139;-53